首页
METAR-TAF:

METAR-TAF

机场 :

Pangborn Memorial Airport

韦纳奇, 华盛顿, 美国

纬度: 47-23-56N, 经度: 120-12-25W, 海拔: 381米

当前天气观测

该预报发布于55分钟前的23:55 UTC
风速4节,风向南转南东
温度 -2°C
湿度 93%
气压 1024 hPa
能見度: 12.9公里
阴天层高于500英尺

METAR: KEAT 102355Z AUTO 16004KT 8SM OVC005 M02/M03 A3025 RMK AO2 SLP260 T10171028 11011 21022 53003

时间: 16:50 (00:50 UTC)

预报

该预报发布于1小时和30分钟前的23:20 UTC
预报有效从11日的 00点(UTC)到 11日的 24点(UTC)
风速3节,风向多变
能見度: 10公里
阴天层高于700英尺
从 11日的 0400点(UTC)
风速3节,风向多变
能見度: 4.8公里
阴天层高于700英尺
轻雾
从 11日的 1200点(UTC)
风速3节,风向多变
能見度: 2.4公里
多云层高于700英尺
阴天层高于1500英尺
小雪, 轻雾
从 11日的 1800点(UTC)
风速3节,风向多变
能見度: 1.6公里
多云层高于1500英尺
轻雾

TAF: KEAT 102320Z 1100/1124 VRB03KT P6SM OVC007 FM110400 VRB03KT 3SM BR OVC007 FM111200 VRB03KT 1 1/2SM -SN BR BKN007 OVC015 FM111800 VRB03KT 2SM BR BKN015

超过4000个机场的气象观测和天气预报(METAR&TAF报告)。

可查询的气象台以黄色和红色小点在地图上表示。

将鼠标移到小点上方,可查看气象台名称。

然后点击查看天气观测和预报。

如需切换地图:点击带黑十字的绿色按钮放大地图;点击带横线的绿色按钮缩小地图;或者点击绿色箭头查看邻近地区的地图。


METAR-TAF: